Pagina principale
METAR-TAF:

METAR-TAF

Aeroporti :

Aeroporto di Latina

Latina, Italia

latitudine: 41-33N, longitudine: 012-54E, altezza: 25 m

Osservazione

Il bollettino è stato emesso 22 ore e 6 minuti fa, alle 17:55 UTC
Vento 7 kt da nord-ovest
Temperature 27°C
Umidità 62%
Pressione 1011 hPa
Visibilità 10 km o più
Poco nuvoloso ad un'altezza di 2000 ft

METAR: LIRL 121755Z 31007KT 9999 FEW020 27/19 Q1011

Ora: 18:01 (16:01 UTC)

Previsione

Il bollettino è stato emesso 26 ore e 1 minuti fa, alle 14:00 UTC
Previsione valida dal 12 alle 15 UTC al 12 alle 24 UTC
Vento 12 kt da sud-est
Visibilità 10 km o più
Nubi sparse ad un'altezza di 2000 ft
Probabilità 30% :
Temporaneamente
dal 12 alle 15 UTC al 12 alle 18 UTC
Visibilità: 5000 m
Poco nuvoloso ad un'altezza di 2000 ft, Cumulonembo.
temporale, pioggia

TAF: LIRL 121400Z 1215/1224 13012KT 9999 SCT020 PROB30 TEMPO 1215/1218 5000 TSRA FEW020CB

Osservazioni e previsioni meteorologiche di più di 4000 aeroporti (messaggi METAR e TAF).

Le stazioni disponibili sono rappresentate dai dischi gialli e rossi sulla carta.

Puntare il mouse per vedere il nome della stazione.

Clicca sopra per visualizzare le osservazioni e previsioni meteorologiche.

Per cambiare la mappa : fare clic sui pulsanti verdi con una croce nera per ingrandire, il pulsante verde con un trattino per diminuire, o sulla freccia verde per le mappe adiacenti.


METAR-TAF: